sensor_id;sensor_type;location;lat;lon;timestamp;P1;durP1;ratioP1;P2;durP2;ratioP2
41952;SDS011;63613;28.200;112.870;2023-02-23T00:02:15;73.28;;;59.92;;
41952;SDS011;63613;28.200;112.870;2023-02-23T00:04:42;75.85;;;59.95;;
41952;SDS011;63613;28.200;112.870;2023-02-23T00:07:09;72.93;;;59.33;;
41952;SDS011;63613;28.200;112.870;2023-02-23T00:09:36;75.18;;;61.58;;
41952;SDS011;63613;28.200;112.870;2023-02-23T00:12:04;71.55;;;59.20;;
41952;SDS011;63613;28.200;112.870;2023-02-23T00:14:35;75.10;;;59.85;;
41952;SDS011;63613;28.200;112.870;2023-02-23T00:17:02;71.18;;;61.28;;
41952;SDS011;63613;28.200;112.870;2023-02-23T00:19:38;72.20;;;60.55;;
41952;SDS011;63613;28.200;112.870;2023-02-23T00:22:07;72.32;;;58.55;;
41952;SDS011;63613;28.200;112.870;2023-02-23T00:24:34;72.28;;;58.20;;
41952;SDS011;63613;28.200;112.870;2023-02-23T00:27:03;71.25;;;58.92;;
41952;SDS011;63613;28.200;112.870;2023-02-23T00:29:31;70.15;;;57.83;;
41952;SDS011;63613;28.200;112.870;2023-02-23T00:32:03;69.35;;;57.05;;
41952;SDS011;63613;28.200;112.870;2023-02-23T00:34:30;71.00;;;56.03;;
41952;SDS011;63613;28.200;112.870;2023-02-23T00:36:57;72.30;;;58.65;;
41952;SDS011;63613;28.200;112.870;2023-02-23T00:39:24;73.97;;;56.72;;
41952;SDS011;63613;28.200;112.870;2023-02-23T00:41:54;71.20;;;55.97;;
41952;SDS011;63613;28.200;112.870;2023-02-23T00:44:26;70.20;;;56.55;;
41952;SDS011;63613;28.200;112.870;2023-02-23T00:46:54;67.07;;;55.05;;
41952;SDS011;63613;28.200;112.870;2023-02-23T00:49:24;67.75;;;54.35;;
41952;SDS011;63613;28.200;112.870;2023-02-23T00:51:52;67.50;;;55.85;;
41952;SDS011;63613;28.200;112.870;2023-02-23T00:54:19;69.15;;;54.08;;
41952;SDS011;63613;28.200;112.870;2023-02-23T00:56:47;69.72;;;55.25;;
41952;SDS011;63613;28.200;112.870;2023-02-23T00:59:14;65.68;;;50.70;;
41952;SDS011;63613;28.200;112.870;2023-02-23T01:01:41;66.80;;;52.50;;
41952;SDS011;63613;28.200;112.870;2023-02-23T01:04:10;66.10;;;54.35;;
41952;SDS011;63613;28.200;112.870;2023-02-23T01:06:38;65.28;;;52.30;;
41952;SDS011;63613;28.200;112.870;2023-02-23T01:09:14;65.03;;;52.75;;
41952;SDS011;63613;28.200;112.870;2023-02-23T01:11:52;62.20;;;51.25;;
41952;SDS011;63613;28.200;112.870;2023-02-23T01:14:21;63.33;;;52.15;;
41952;SDS011;63613;28.200;112.870;2023-02-23T01:16:48;64.20;;;52.85;;
41952;SDS011;63613;28.200;112.870;2023-02-23T01:19:15;61.45;;;51.17;;
41952;SDS011;63613;28.200;112.870;2023-02-23T01:21:42;60.22;;;49.83;;
41952;SDS011;63613;28.200;112.870;2023-02-23T01:24:09;62.00;;;50.92;;
41952;SDS011;63613;28.200;112.870;2023-02-23T01:26:37;60.45;;;48.35;;
41952;SDS011;63613;28.200;112.870;2023-02-23T01:29:07;62.42;;;48.67;;
41952;SDS011;63613;28.200;112.870;2023-02-23T01:31:41;62.95;;;48.45;;
41952;SDS011;63613;28.200;112.870;2023-02-23T01:34:11;57.33;;;48.95;;
41952;SDS011;63613;28.200;112.870;2023-02-23T01:36:40;59.08;;;48.42;;
41952;SDS011;63613;28.200;112.870;2023-02-23T01:39:09;60.50;;;47.63;;
41952;SDS011;63613;28.200;112.870;2023-02-23T01:41:38;58.83;;;46.55;;
41952;SDS011;63613;28.200;112.870;2023-02-23T01:44:08;59.38;;;48.15;;
41952;SDS011;63613;28.200;112.870;2023-02-23T01:46:38;57.72;;;46.30;;
41952;SDS011;63613;28.200;112.870;2023-02-23T01:49:11;59.75;;;48.08;;
41952;SDS011;63613;28.200;112.870;2023-02-23T01:51:48;58.50;;;46.58;;
41952;SDS011;63613;28.200;112.870;2023-02-23T01:54:23;58.08;;;46.00;;
41952;SDS011;63613;28.200;112.870;2023-02-23T01:56:54;54.03;;;42.75;;
41952;SDS011;63613;28.200;112.870;2023-02-23T01:59:26;53.17;;;44.67;;
41952;SDS011;63613;28.200;112.870;2023-02-23T02:02:04;51.10;;;42.95;;
41952;SDS011;63613;28.200;112.870;2023-02-23T02:04:33;56.35;;;43.95;;
41952;SDS011;63613;28.200;112.870;2023-02-23T02:07:20;56.05;;;44.33;;
41952;SDS011;63613;28.200;112.870;2023-02-23T02:09:55;57.92;;;44.33;;
41952;SDS011;63613;28.200;112.870;2023-02-23T02:12:39;53.38;;;43.00;;
41952;SDS011;63613;28.200;112.870;2023-02-23T02:15:09;51.72;;;44.20;;
41952;SDS011;63613;28.200;112.870;2023-02-23T02:34:26;50.85;;;40.10;;
41952;SDS011;63613;28.200;112.870;2023-02-23T02:37:19;50.53;;;40.80;;
41952;SDS011;63613;28.200;112.870;2023-02-23T02:45:54;51.25;;;40.55;;
41952;SDS011;63613;28.200;112.870;2023-02-23T02:56:57;48.63;;;38.00;;
41952;SDS011;63613;28.200;112.870;2023-02-23T02:59:28;49.50;;;38.28;;
41952;SDS011;63613;28.200;112.870;2023-02-23T03:02:15;49.47;;;37.63;;
41952;SDS011;63613;28.200;112.870;2023-02-23T03:05:12;45.97;;;36.35;;
41952;SDS011;63613;28.200;112.870;2023-02-23T03:11:30;51.70;;;39.28;;
41952;SDS011;63613;28.200;112.870;2023-02-23T03:17:53;50.63;;;38.50;;
41952;SDS011;63613;28.200;112.870;2023-02-23T03:21:15;46.47;;;35.75;;
41952;SDS011;63613;28.200;112.870;2023-02-23T03:30:03;44.53;;;35.92;;
41952;SDS011;63613;28.200;112.870;2023-02-23T03:32:59;48.95;;;36.78;;
41952;SDS011;63613;28.200;112.870;2023-02-23T03:38:42;44.83;;;34.30;;
41952;SDS011;63613;28.200;112.870;2023-02-23T03:41:48;46.60;;;35.50;;
41952;SDS011;63613;28.200;112.870;2023-02-23T03:44:38;42.80;;;33.08;;
41952;SDS011;63613;28.200;112.870;2023-02-23T03:47:27;45.45;;;33.83;;
41952;SDS011;63613;28.200;112.870;2023-02-23T03:50:36;45.10;;;34.75;;
41952;SDS011;63613;28.200;112.870;2023-02-23T03:53:50;43.90;;;33.15;;
41952;SDS011;63613;28.200;112.870;2023-02-23T03:56:43;47.65;;;33.85;;
41952;SDS011;63613;28.200;112.870;2023-02-23T03:59:33;42.85;;;33.22;;
41952;SDS011;63613;28.200;112.870;2023-02-23T04:02:29;43.40;;;33.03;;
41952;SDS011;63613;28.200;112.870;2023-02-23T04:05:17;46.33;;;34.00;;
41952;SDS011;63613;28.200;112.870;2023-02-23T04:08:05;44.25;;;33.33;;
41952;SDS011;63613;28.200;112.870;2023-02-23T04:10:59;45.05;;;33.65;;
41952;SDS011;63613;28.200;112.870;2023-02-23T04:13:59;45.03;;;34.35;;
41952;SDS011;63613;28.200;112.870;2023-02-23T04:16:29;42.85;;;32.03;;
41952;SDS011;63613;28.200;112.870;2023-02-23T04:18:57;43.88;;;33.63;;
41952;SDS011;63613;28.200;112.870;2023-02-23T04:21:25;41.78;;;31.15;;
41952;SDS011;63613;28.200;112.870;2023-02-23T04:23:52;41.65;;;31.13;;
41952;SDS011;63613;28.200;112.870;2023-02-23T04:26:19;42.40;;;31.60;;
41952;SDS011;63613;28.200;112.870;2023-02-23T04:28:45;39.90;;;31.05;;
41952;SDS011;63613;28.200;112.870;2023-02-23T04:31:12;42.17;;;31.52;;
41952;SDS011;63613;28.200;112.870;2023-02-23T04:33:39;43.20;;;32.65;;
41952;SDS011;63613;28.200;112.870;2023-02-23T04:36:06;45.47;;;32.40;;
41952;SDS011;63613;28.200;112.870;2023-02-23T04:38:33;45.92;;;32.67;;
41952;SDS011;63613;28.200;112.870;2023-02-23T04:41:00;43.78;;;31.65;;
41952;SDS011;63613;28.200;112.870;2023-02-23T04:43:26;44.92;;;32.97;;
41952;SDS011;63613;28.200;112.870;2023-02-23T04:45:53;44.05;;;31.42;;
41952;SDS011;63613;28.200;112.870;2023-02-23T04:48:20;42.13;;;31.73;;
41952;SDS011;63613;28.200;112.870;2023-02-23T04:50:52;40.13;;;30.35;;
41952;SDS011;63613;28.200;112.870;2023-02-23T04:53:20;42.42;;;29.42;;
41952;SDS011;63613;28.200;112.870;2023-02-23T04:55:47;43.55;;;30.38;;
41952;SDS011;63613;28.200;112.870;2023-02-23T04:58:13;43.33;;;30.00;;
41952;SDS011;63613;28.200;112.870;2023-02-23T05:00:40;41.38;;;30.95;;
41952;SDS011;63613;28.200;112.870;2023-02-23T05:03:07;44.90;;;30.75;;
41952;SDS011;63613;28.200;112.870;2023-02-23T05:05:35;39.75;;;31.10;;
41952;SDS011;63613;28.200;112.870;2023-02-23T05:08:01;38.90;;;29.02;;
41952;SDS011;63613;28.200;112.870;2023-02-23T05:10:29;39.70;;;28.10;;
41952;SDS011;63613;28.200;112.870;2023-02-23T05:12:56;36.80;;;28.50;;
41952;SDS011;63613;28.200;112.870;2023-02-23T05:15:23;36.42;;;27.20;;
41952;SDS011;63613;28.200;112.870;2023-02-23T05:17:53;35.05;;;26.90;;
41952;SDS011;63613;28.200;112.870;2023-02-23T05:20:21;37.33;;;27.38;;
41952;SDS011;63613;28.200;112.870;2023-02-23T05:22:48;38.25;;;27.33;;
41952;SDS011;63613;28.200;112.870;2023-02-23T05:25:15;36.67;;;25.70;;
41952;SDS011;63613;28.200;112.870;2023-02-23T05:27:41;36.20;;;27.02;;
41952;SDS011;63613;28.200;112.870;2023-02-23T05:30:08;39.42;;;25.40;;
41952;SDS011;63613;28.200;112.870;2023-02-23T05:32:36;38.85;;;27.58;;
41952;SDS011;63613;28.200;112.870;2023-02-23T05:35:03;34.15;;;25.48;;
41952;SDS011;63613;28.200;112.870;2023-02-23T05:37:30;34.85;;;24.80;;
41952;SDS011;63613;28.200;112.870;2023-02-23T05:39:58;34.08;;;25.33;;
41952;SDS011;63613;28.200;112.870;2023-02-23T05:42:25;33.15;;;24.65;;
41952;SDS011;63613;28.200;112.870;2023-02-23T05:44:52;33.28;;;23.75;;
41952;SDS011;63613;28.200;112.870;2023-02-23T05:47:19;32.83;;;23.10;;
41952;SDS011;63613;28.200;112.870;2023-02-23T05:49:46;32.15;;;23.35;;
41952;SDS011;63613;28.200;112.870;2023-02-23T05:52:12;33.83;;;23.08;;
41952;SDS011;63613;28.200;112.870;2023-02-23T05:54:39;30.33;;;22.73;;
41952;SDS011;63613;28.200;112.870;2023-02-23T05:57:06;31.77;;;22.25;;
41952;SDS011;63613;28.200;112.870;2023-02-23T05:59:33;30.08;;;21.90;;
41952;SDS011;63613;28.200;112.870;2023-02-23T06:02:00;30.05;;;21.38;;
41952;SDS011;63613;28.200;112.870;2023-02-23T06:04:29;27.73;;;21.55;;
41952;SDS011;63613;28.200;112.870;2023-02-23T06:06:56;30.02;;;21.20;;
41952;SDS011;63613;28.200;112.870;2023-02-23T06:09:23;29.35;;;21.05;;
41952;SDS011;63613;28.200;112.870;2023-02-23T06:11:50;28.55;;;20.65;;
41952;SDS011;63613;28.200;112.870;2023-02-23T06:14:17;29.63;;;21.58;;
41952;SDS011;63613;28.200;112.870;2023-02-23T06:16:44;27.52;;;20.35;;
41952;SDS011;63613;28.200;112.870;2023-02-23T06:19:13;29.10;;;21.02;;
41952;SDS011;63613;28.200;112.870;2023-02-23T06:21:40;30.70;;;21.08;;
41952;SDS011;63613;28.200;112.870;2023-02-23T06:24:06;27.27;;;20.40;;
41952;SDS011;63613;28.200;112.870;2023-02-23T06:26:34;31.02;;;21.38;;
41952;SDS011;63613;28.200;112.870;2023-02-23T06:29:20;28.05;;;19.90;;
41952;SDS011;63613;28.200;112.870;2023-02-23T06:31:48;27.70;;;19.77;;
41952;SDS011;63613;28.200;112.870;2023-02-23T06:34:15;28.83;;;21.02;;
41952;SDS011;63613;28.200;112.870;2023-02-23T06:37:02;27.08;;;19.75;;
41952;SDS011;63613;28.200;112.870;2023-02-23T06:39:29;28.90;;;20.20;;
41952;SDS011;63613;28.200;112.870;2023-02-23T06:41:56;23.52;;;19.05;;
41952;SDS011;63613;28.200;112.870;2023-02-23T06:44:23;25.83;;;18.38;;
41952;SDS011;63613;28.200;112.870;2023-02-23T06:46:50;25.27;;;18.15;;
41952;SDS011;63613;28.200;112.870;2023-02-23T06:49:17;25.48;;;18.45;;
41952;SDS011;63613;28.200;112.870;2023-02-23T06:51:44;26.45;;;18.77;;
41952;SDS011;63613;28.200;112.870;2023-02-23T06:54:12;25.83;;;18.10;;
41952;SDS011;63613;28.200;112.870;2023-02-23T06:56:38;25.58;;;17.63;;
41952;SDS011;63613;28.200;112.870;2023-02-23T06:59:05;22.73;;;17.60;;
41952;SDS011;63613;28.200;112.870;2023-02-23T07:01:32;23.88;;;17.30;;
41952;SDS011;63613;28.200;112.870;2023-02-23T07:03:59;22.45;;;17.05;;
41952;SDS011;63613;28.200;112.870;2023-02-23T07:06:29;26.27;;;18.00;;
41952;SDS011;63613;28.200;112.870;2023-02-23T07:08:57;23.98;;;17.58;;
41952;SDS011;63613;28.200;112.870;2023-02-23T07:11:23;28.15;;;17.08;;
41952;SDS011;63613;28.200;112.870;2023-02-23T07:14:10;21.73;;;16.15;;
41952;SDS011;63613;28.200;112.870;2023-02-23T07:16:37;24.75;;;17.23;;
41952;SDS011;63613;28.200;112.870;2023-02-23T07:19:05;21.52;;;16.70;;
41952;SDS011;63613;28.200;112.870;2023-02-23T07:21:32;22.67;;;16.83;;
41952;SDS011;63613;28.200;112.870;2023-02-23T07:23:59;23.83;;;17.77;;
41952;SDS011;63613;28.200;112.870;2023-02-23T07:26:29;23.40;;;16.52;;
41952;SDS011;63613;28.200;112.870;2023-02-23T07:28:58;20.80;;;16.25;;
41952;SDS011;63613;28.200;112.870;2023-02-23T07:31:25;22.08;;;15.95;;
41952;SDS011;63613;28.200;112.870;2023-02-23T07:34:14;23.80;;;16.45;;
41952;SDS011;63613;28.200;112.870;2023-02-23T07:36:41;24.10;;;17.27;;
41952;SDS011;63613;28.200;112.870;2023-02-23T07:39:08;22.02;;;16.23;;
41952;SDS011;63613;28.200;112.870;2023-02-23T07:41:34;20.80;;;15.93;;
41952;SDS011;63613;28.200;112.870;2023-02-23T07:44:01;19.25;;;15.18;;
41952;SDS011;63613;28.200;112.870;2023-02-23T07:46:28;21.02;;;16.23;;
41952;SDS011;63613;28.200;112.870;2023-02-23T07:48:55;20.10;;;15.48;;
41952;SDS011;63613;28.200;112.870;2023-02-23T07:51:42;22.90;;;16.02;;
41952;SDS011;63613;28.200;112.870;2023-02-23T07:54:08;22.88;;;15.75;;
41952;SDS011;63613;28.200;112.870;2023-02-23T07:56:35;20.88;;;15.63;;
41952;SDS011;63613;28.200;112.870;2023-02-23T07:59:02;22.13;;;15.60;;
41952;SDS011;63613;28.200;112.870;2023-02-23T08:01:29;21.30;;;16.17;;
41952;SDS011;63613;28.200;112.870;2023-02-23T08:03:56;23.15;;;16.02;;
41952;SDS011;63613;28.200;112.870;2023-02-23T08:06:23;22.70;;;15.10;;
41952;SDS011;63613;28.200;112.870;2023-02-23T08:08:50;20.75;;;14.75;;
41952;SDS011;63613;28.200;112.870;2023-02-23T08:11:16;18.35;;;14.93;;
41952;SDS011;63613;28.200;112.870;2023-02-23T08:13:43;20.60;;;15.23;;
41952;SDS011;63613;28.200;112.870;2023-02-23T08:16:10;21.85;;;15.55;;
41952;SDS011;63613;28.200;112.870;2023-02-23T08:18:37;22.10;;;15.93;;
41952;SDS011;63613;28.200;112.870;2023-02-23T08:21:04;22.30;;;16.00;;
41952;SDS011;63613;28.200;112.870;2023-02-23T08:23:52;24.23;;;15.02;;
41952;SDS011;63613;28.200;112.870;2023-02-23T08:26:20;22.83;;;15.35;;
41952;SDS011;63613;28.200;112.870;2023-02-23T08:28:49;22.20;;;15.18;;
41952;SDS011;63613;28.200;112.870;2023-02-23T08:31:16;21.08;;;15.32;;
41952;SDS011;63613;28.200;112.870;2023-02-23T08:36:32;21.63;;;15.07;;
41952;SDS011;63613;28.200;112.870;2023-02-23T08:38:59;21.33;;;14.50;;
41952;SDS011;63613;28.200;112.870;2023-02-23T08:41:26;20.73;;;14.82;;
41952;SDS011;63613;28.200;112.870;2023-02-23T08:43:53;20.23;;;15.13;;
41952;SDS011;63613;28.200;112.870;2023-02-23T08:46:20;23.63;;;15.27;;
41952;SDS011;63613;28.200;112.870;2023-02-23T08:48:46;22.00;;;16.33;;
41952;SDS011;63613;28.200;112.870;2023-02-23T08:51:13;19.45;;;14.75;;
41952;SDS011;63613;28.200;112.870;2023-02-23T08:53:40;21.00;;;15.15;;
41952;SDS011;63613;28.200;112.870;2023-02-23T08:56:07;20.65;;;15.18;;
41952;SDS011;63613;28.200;112.870;2023-02-23T08:58:35;20.70;;;14.95;;
41952;SDS011;63613;28.200;112.870;2023-02-23T09:01:22;19.17;;;14.52;;
41952;SDS011;63613;28.200;112.870;2023-02-23T09:03:48;20.13;;;13.52;;
41952;SDS011;63613;28.200;112.870;2023-02-23T09:06:18;22.02;;;15.68;;
41952;SDS011;63613;28.200;112.870;2023-02-23T09:08:46;19.13;;;14.77;;
41952;SDS011;63613;28.200;112.870;2023-02-23T09:11:13;19.77;;;14.75;;
41952;SDS011;63613;28.200;112.870;2023-02-23T09:13:40;21.42;;;14.93;;
41952;SDS011;63613;28.200;112.870;2023-02-23T09:16:07;21.65;;;16.52;;
41952;SDS011;63613;28.200;112.870;2023-02-23T09:18:34;20.67;;;14.77;;
41952;SDS011;63613;28.200;112.870;2023-02-23T09:21:02;19.17;;;15.00;;
41952;SDS011;63613;28.200;112.870;2023-02-23T09:23:35;20.47;;;15.03;;
41952;SDS011;63613;28.200;112.870;2023-02-23T09:26:22;19.65;;;14.65;;
41952;SDS011;63613;28.200;112.870;2023-02-23T09:28:52;20.80;;;15.40;;
41952;SDS011;63613;28.200;112.870;2023-02-23T09:31:20;18.38;;;14.15;;
41952;SDS011;63613;28.200;112.870;2023-02-23T09:33:48;19.42;;;13.90;;
41952;SDS011;63613;28.200;112.870;2023-02-23T09:36:17;17.42;;;13.98;;
41952;SDS011;63613;28.200;112.870;2023-02-23T09:38:47;20.27;;;15.02;;
41952;SDS011;63613;28.200;112.870;2023-02-23T09:47:17;19.95;;;15.07;;
41952;SDS011;63613;28.200;112.870;2023-02-23T09:49:56;19.67;;;14.52;;
41952;SDS011;63613;28.200;112.870;2023-02-23T09:52:42;19.13;;;14.10;;
41952;SDS011;63613;28.200;112.870;2023-02-23T09:55:13;21.10;;;14.48;;
41952;SDS011;63613;28.200;112.870;2023-02-23T09:57:44;19.23;;;14.20;;
41952;SDS011;63613;28.200;112.870;2023-02-23T10:00:17;18.17;;;12.52;;
41952;SDS011;63613;28.200;112.870;2023-02-23T10:05:45;20.05;;;14.57;;
41952;SDS011;63613;28.200;112.870;2023-02-23T10:11:09;16.30;;;13.13;;
41952;SDS011;63613;28.200;112.870;2023-02-23T10:19:25;18.50;;;12.77;;
41952;SDS011;63613;28.200;112.870;2023-02-23T10:22:02;16.65;;;12.95;;
41952;SDS011;63613;28.200;112.870;2023-02-23T10:24:38;17.42;;;13.40;;
41952;SDS011;63613;28.200;112.870;2023-02-23T10:27:18;16.20;;;12.02;;
41952;SDS011;63613;28.200;112.870;2023-02-23T10:29:50;20.75;;;14.30;;
41952;SDS011;63613;28.200;112.870;2023-02-23T10:35:15;16.02;;;12.57;;
41952;SDS011;63613;28.200;112.870;2023-02-23T10:37:44;17.65;;;12.52;;
41952;SDS011;63613;28.200;112.870;2023-02-23T10:40:16;19.05;;;13.10;;
41952;SDS011;63613;28.200;112.870;2023-02-23T10:42:47;19.38;;;13.77;;
41952;SDS011;63613;28.200;112.870;2023-02-23T10:45:16;18.52;;;12.90;;
41952;SDS011;63613;28.200;112.870;2023-02-23T10:50:25;14.93;;;12.70;;
41952;SDS011;63613;28.200;112.870;2023-02-23T10:53:26;18.17;;;12.80;;
41952;SDS011;63613;28.200;112.870;2023-02-23T10:56:01;21.63;;;13.25;;
41952;SDS011;63613;28.200;112.870;2023-02-23T10:58:57;14.60;;;11.68;;
41952;SDS011;63613;28.200;112.870;2023-02-23T11:01:35;19.38;;;12.38;;
41952;SDS011;63613;28.200;112.870;2023-02-23T11:06:51;21.17;;;13.27;;
41952;SDS011;63613;28.200;112.870;2023-02-23T11:09:33;20.20;;;13.82;;
41952;SDS011;63613;28.200;112.870;2023-02-23T11:12:01;19.10;;;14.07;;
41952;SDS011;63613;28.200;112.870;2023-02-23T11:14:41;18.75;;;13.45;;
41952;SDS011;63613;28.200;112.870;2023-02-23T11:17:20;20.35;;;13.82;;
41952;SDS011;63613;28.200;112.870;2023-02-23T11:20:22;19.00;;;13.55;;
41952;SDS011;63613;28.200;112.870;2023-02-23T11:22:55;19.08;;;13.30;;
41952;SDS011;63613;28.200;112.870;2023-02-23T11:25:42;19.23;;;13.13;;
41952;SDS011;63613;28.200;112.870;2023-02-23T11:28:20;18.10;;;12.85;;
41952;SDS011;63613;28.200;112.870;2023-02-23T11:31:03;18.38;;;12.73;;
41952;SDS011;63613;28.200;112.870;2023-02-23T11:33:34;18.30;;;13.50;;
41952;SDS011;63613;28.200;112.870;2023-02-23T11:41:44;19.08;;;12.98;;
41952;SDS011;63613;28.200;112.870;2023-02-23T11:44:21;18.23;;;12.60;;
41952;SDS011;63613;28.200;112.870;2023-02-23T11:46:48;20.95;;;13.40;;
41952;SDS011;63613;28.200;112.870;2023-02-23T11:49:20;16.70;;;12.60;;
41952;SDS011;63613;28.200;112.870;2023-02-23T11:51:53;16.08;;;11.25;;
41952;SDS011;63613;28.200;112.870;2023-02-23T11:54:30;18.48;;;12.15;;
41952;SDS011;63613;28.200;112.870;2023-02-23T11:56:58;17.52;;;12.13;;
41952;SDS011;63613;28.200;112.870;2023-02-23T11:59:32;17.83;;;12.45;;
41952;SDS011;63613;28.200;112.870;2023-02-23T12:04:43;16.98;;;11.95;;
41952;SDS011;63613;28.200;112.870;2023-02-23T12:09:51;15.93;;;11.40;;
41952;SDS011;63613;28.200;112.870;2023-02-23T12:12:28;17.70;;;11.75;;
41952;SDS011;63613;28.200;112.870;2023-02-23T12:15:10;16.25;;;11.75;;
41952;SDS011;63613;28.200;112.870;2023-02-23T12:17:48;17.60;;;11.77;;
41952;SDS011;63613;28.200;112.870;2023-02-23T12:20:21;15.18;;;11.02;;
41952;SDS011;63613;28.200;112.870;2023-02-23T12:23:04;16.73;;;10.75;;
41952;SDS011;63613;28.200;112.870;2023-02-23T12:25:45;15.68;;;10.57;;
41952;SDS011;63613;28.200;112.870;2023-02-23T12:33:40;16.75;;;10.75;;
41952;SDS011;63613;28.200;112.870;2023-02-23T12:41:38;17.25;;;10.90;;
41952;SDS011;63613;28.200;112.870;2023-02-23T12:44:28;14.82;;;10.35;;
41952;SDS011;63613;28.200;112.870;2023-02-23T12:47:18;17.58;;;10.60;;
41952;SDS011;63613;28.200;112.870;2023-02-23T12:52:59;15.18;;;10.57;;
41952;SDS011;63613;28.200;112.870;2023-02-23T12:55:48;13.60;;;10.05;;
41952;SDS011;63613;28.200;112.870;2023-02-23T13:04:07;12.10;;;8.38;;
41952;SDS011;63613;28.200;112.870;2023-02-23T13:07:01;14.18;;;9.27;;
41952;SDS011;63613;28.200;112.870;2023-02-23T13:09:48;13.73;;;9.68;;
41952;SDS011;63613;28.200;112.870;2023-02-23T13:15:43;11.25;;;8.65;;
41952;SDS011;63613;28.200;112.870;2023-02-23T13:21:23;13.27;;;9.20;;
41952;SDS011;63613;28.200;112.870;2023-02-23T13:27:01;11.25;;;9.05;;
41952;SDS011;63613;28.200;112.870;2023-02-23T13:29:40;11.82;;;8.85;;
41952;SDS011;63613;28.200;112.870;2023-02-23T13:32:10;11.00;;;8.27;;
41952;SDS011;63613;28.200;112.870;2023-02-23T13:37:27;11.98;;;9.32;;
41952;SDS011;63613;28.200;112.870;2023-02-23T13:45:23;12.20;;;10.00;;
41952;SDS011;63613;28.200;112.870;2023-02-23T13:56:26;12.45;;;9.00;;
41952;SDS011;63613;28.200;112.870;2023-02-23T13:59:24;12.00;;;8.48;;
41952;SDS011;63613;28.200;112.870;2023-02-23T14:05:03;11.45;;;8.98;;
41952;SDS011;63613;28.200;112.870;2023-02-23T14:07:42;12.32;;;9.60;;
41952;SDS011;63613;28.200;112.870;2023-02-23T14:10:35;14.02;;;9.02;;
41952;SDS011;63613;28.200;112.870;2023-02-23T14:18:34;10.60;;;8.18;;
41952;SDS011;63613;28.200;112.870;2023-02-23T14:23:48;9.88;;;8.00;;
41952;SDS011;63613;28.200;112.870;2023-02-23T14:29:23;11.52;;;8.88;;
41952;SDS011;63613;28.200;112.870;2023-02-23T14:32:02;9.70;;;7.75;;
41952;SDS011;63613;28.200;112.870;2023-02-23T14:34:47;9.88;;;8.32;;
41952;SDS011;63613;28.200;112.870;2023-02-23T14:37:17;10.35;;;7.88;;
41952;SDS011;63613;28.200;112.870;2023-02-23T14:39:52;11.88;;;8.35;;
41952;SDS011;63613;28.200;112.870;2023-02-23T14:42:24;9.20;;;7.85;;
41952;SDS011;63613;28.200;112.870;2023-02-23T14:45:02;9.95;;;7.88;;
41952;SDS011;63613;28.200;112.870;2023-02-23T14:48:00;9.98;;;7.28;;
41952;SDS011;63613;28.200;112.870;2023-02-23T14:50:35;8.52;;;6.45;;
41952;SDS011;63613;28.200;112.870;2023-02-23T14:53:04;9.77;;;7.78;;
41952;SDS011;63613;28.200;112.870;2023-02-23T14:55:39;9.27;;;7.43;;
41952;SDS011;63613;28.200;112.870;2023-02-23T14:58:20;10.13;;;7.72;;
41952;SDS011;63613;28.200;112.870;2023-02-23T15:00:48;10.60;;;7.15;;
41952;SDS011;63613;28.200;112.870;2023-02-23T15:03:16;8.68;;;6.82;;
41952;SDS011;63613;28.200;112.870;2023-02-23T15:08:22;9.23;;;7.00;;
41952;SDS011;63613;28.200;112.870;2023-02-23T15:11:11;11.25;;;7.60;;
41952;SDS011;63613;28.200;112.870;2023-02-23T15:13:40;10.43;;;8.05;;
41952;SDS011;63613;28.200;112.870;2023-02-23T15:16:13;8.68;;;6.75;;
41952;SDS011;63613;28.200;112.870;2023-02-23T15:18:43;9.55;;;6.93;;
41952;SDS011;63613;28.200;112.870;2023-02-23T15:21:16;10.25;;;7.68;;
41952;SDS011;63613;28.200;112.870;2023-02-23T15:23:47;9.30;;;7.13;;
41952;SDS011;63613;28.200;112.870;2023-02-23T15:31:44;8.85;;;7.30;;
41952;SDS011;63613;28.200;112.870;2023-02-23T15:34:20;10.18;;;7.22;;
41952;SDS011;63613;28.200;112.870;2023-02-23T15:36:59;8.38;;;6.53;;
41952;SDS011;63613;28.200;112.870;2023-02-23T15:39:33;7.95;;;7.15;;
41952;SDS011;63613;28.200;112.870;2023-02-23T15:44:35;10.57;;;7.30;;
41952;SDS011;63613;28.200;112.870;2023-02-23T15:47:03;11.52;;;7.20;;
41952;SDS011;63613;28.200;112.870;2023-02-23T15:49:58;10.25;;;7.53;;
41952;SDS011;63613;28.200;112.870;2023-02-23T15:52:56;10.02;;;7.45;;
41952;SDS011;63613;28.200;112.870;2023-02-23T15:55:40;8.93;;;6.85;;
41952;SDS011;63613;28.200;112.870;2023-02-23T15:58:28;9.80;;;6.97;;
41952;SDS011;63613;28.200;112.870;2023-02-23T16:01:07;7.95;;;6.43;;
41952;SDS011;63613;28.200;112.870;2023-02-23T16:03:45;11.43;;;6.75;;
41952;SDS011;63613;28.200;112.870;2023-02-23T16:09:36;9.05;;;7.18;;
41952;SDS011;63613;28.200;112.870;2023-02-23T16:12:08;10.70;;;7.65;;
41952;SDS011;63613;28.200;112.870;2023-02-23T16:14:44;8.43;;;6.80;;
41952;SDS011;63613;28.200;112.870;2023-02-23T16:22:40;9.73;;;6.82;;
41952;SDS011;63613;28.200;112.870;2023-02-23T16:25:19;10.55;;;7.15;;
41952;SDS011;63613;28.200;112.870;2023-02-23T16:27:52;8.63;;;7.07;;
41952;SDS011;63613;28.200;112.870;2023-02-23T16:33:06;10.23;;;7.18;;
41952;SDS011;63613;28.200;112.870;2023-02-23T16:35:51;10.27;;;7.50;;
41952;SDS011;63613;28.200;112.870;2023-02-23T16:38:38;10.38;;;7.43;;
41952;SDS011;63613;28.200;112.870;2023-02-23T16:41:18;10.50;;;7.80;;
41952;SDS011;63613;28.200;112.870;2023-02-23T16:43:47;10.75;;;7.95;;
41952;SDS011;63613;28.200;112.870;2023-02-23T16:46:15;11.48;;;8.57;;
41952;SDS011;63613;28.200;112.870;2023-02-23T16:48:42;12.65;;;8.13;;
41952;SDS011;63613;28.200;112.870;2023-02-23T16:51:16;10.32;;;7.78;;
41952;SDS011;63613;28.200;112.870;2023-02-23T16:53:48;13.50;;;9.02;;
41952;SDS011;63613;28.200;112.870;2023-02-23T16:56:18;10.50;;;8.02;;
41952;SDS011;63613;28.200;112.870;2023-02-23T16:58:51;13.55;;;8.75;;
41952;SDS011;63613;28.200;112.870;2023-02-23T17:01:25;11.02;;;7.78;;
41952;SDS011;63613;28.200;112.870;2023-02-23T17:03:52;11.38;;;8.52;;
41952;SDS011;63613;28.200;112.870;2023-02-23T17:06:20;10.20;;;8.20;;
41952;SDS011;63613;28.200;112.870;2023-02-23T17:08:47;10.23;;;8.15;;
41952;SDS011;63613;28.200;112.870;2023-02-23T17:11:14;11.77;;;8.27;;
41952;SDS011;63613;28.200;112.870;2023-02-23T17:13:41;12.18;;;8.43;;
41952;SDS011;63613;28.200;112.870;2023-02-23T17:16:09;10.55;;;8.00;;
41952;SDS011;63613;28.200;112.870;2023-02-23T17:18:37;11.30;;;8.65;;
41952;SDS011;63613;28.200;112.870;2023-02-23T17:21:06;12.13;;;8.43;;
41952;SDS011;63613;28.200;112.870;2023-02-23T17:23:36;12.88;;;8.35;;
41952;SDS011;63613;28.200;112.870;2023-02-23T17:26:13;11.30;;;8.48;;